createdAt,value
2023-10-12T00:02:29.125Z,1242.25
2023-10-12T00:12:30.214Z,1210.75
2023-10-12T00:22:29.727Z,992.61
2023-10-12T00:32:28.459Z,716.82
2023-10-12T00:42:29.380Z,861.91
2023-10-12T00:52:30.832Z,927.80
2023-10-12T01:02:31.377Z,337.53
2023-10-12T01:12:31.988Z,646.09
2023-10-12T01:22:32.378Z,825.40
2023-10-12T01:32:33.958Z,1007.26
2023-10-12T01:42:38.935Z,966.03
2023-10-12T01:52:37.491Z,1365.63
2023-10-12T02:02:37.824Z,1235.26
2023-10-12T02:12:36.610Z,695.64
2023-10-12T02:22:36.903Z,643.20
2023-10-12T02:32:37.591Z,21.44
2023-10-12T02:42:40.128Z,54.63
2023-10-12T02:52:39.542Z,544.72
2023-10-12T03:02:42.249Z,655.39
2023-10-12T03:12:43.496Z,618.63
2023-10-12T03:22:44.461Z,887.59
2023-10-12T03:32:45.038Z,728.71
2023-10-12T03:42:44.684Z,549.57
2023-10-12T03:52:45.699Z,693.13
2023-10-12T04:02:47.514Z,657.50
2023-10-12T04:12:57.796Z,636.37
2023-10-12T04:23:17.197Z,668.48
2023-10-12T04:33:17.490Z,745.50
2023-10-12T04:43:18.588Z,503.47
2023-10-12T04:53:19.612Z,695.91
2023-10-12T05:03:27.128Z,488.06
2023-10-12T05:13:25.658Z,635.12
2023-10-12T05:23:24.643Z,606.24
2023-10-12T05:33:41.586Z,505.57
2023-10-12T05:43:41.281Z,508.27
2023-10-12T05:53:39.652Z,569.57
2023-10-12T06:03:40.287Z,453.55
2023-10-12T06:13:43.526Z,512.74
2023-10-12T06:23:44.577Z,525.78
2023-10-12T06:33:44.045Z,760.92
2023-10-12T06:43:58.775Z,517.38
2023-10-12T06:54:09.296Z,482.43
2023-10-12T07:04:10.336Z,547.42
2023-10-12T07:14:09.954Z,646.49
2023-10-12T07:24:08.709Z,541.96
2023-10-12T07:34:10.219Z,585.14
2023-10-12T07:44:09.130Z,232.82
2023-10-12T07:54:09.761Z,72.78
2023-10-12T08:04:22.682Z,505.51
2023-10-12T08:14:28.346Z,649.20
2023-10-12T08:24:28.978Z,311.13
2023-10-12T08:34:43.112Z,396.28
2023-10-12T08:44:43.721Z,467.57
2023-10-12T08:54:43.704Z,439.74
2023-10-12T09:04:42.897Z,388.05
2023-10-12T09:14:44.161Z,413.51
2023-10-12T09:24:44.738Z,413.67
2023-10-12T09:34:43.831Z,551.68
2023-10-12T09:44:43.207Z,95.37
2023-10-12T09:54:44.328Z,490.93
2023-10-12T10:04:43.477Z,231.11
2023-10-12T10:14:44.948Z,258.88
2023-10-12T10:24:44.733Z,47.27
2023-10-12T10:34:44.541Z,543.12
2023-10-12T10:44:44.056Z,278.21
2023-10-12T10:54:44.881Z,494.36
2023-10-12T11:04:46.395Z,536.38
2023-10-12T11:14:51.010Z,596.85
2023-10-12T11:24:50.351Z,319.19
2023-10-12T11:34:51.935Z,504.35
2023-10-12T11:44:52.446Z,298.15
2023-10-12T11:54:51.338Z,370.27
2023-10-12T12:05:05.953Z,71.57
2023-10-12T12:14:52.980Z,455.64
2023-10-12T12:24:51.961Z,529.75
2023-10-12T12:34:52.973Z,485.57
2023-10-12T12:44:52.853Z,582.27
2023-10-12T12:54:52.677Z,554.00
2023-10-12T13:04:51.961Z,604.36
2023-10-12T13:14:50.945Z,645.67
2023-10-12T13:24:50.093Z,556.76
2023-10-12T13:34:48.931Z,457.52
2023-10-12T13:44:49.865Z,548.53
2023-10-12T13:54:50.860Z,469.56
2023-10-12T14:04:50.210Z,440.62
2023-10-12T14:14:50.022Z,498.72
2023-10-12T14:24:49.013Z,503.69
2023-10-12T14:34:47.987Z,636.94
2023-10-12T14:44:48.880Z,675.38
2023-10-12T14:54:48.075Z,105.97
2023-10-12T15:04:47.029Z,202.01
2023-10-12T15:14:48.146Z,414.78
2023-10-12T15:24:47.010Z,315.82
2023-10-12T15:34:46.023Z,553.11
2023-10-12T15:44:45.065Z,217.58
2023-10-12T15:54:44.049Z,323.77
2023-10-12T16:04:45.062Z,494.19
2023-10-12T16:14:44.019Z,388.16
2023-10-12T16:24:43.029Z,349.23
2023-10-12T16:34:43.752Z,484.08
2023-10-12T16:44:43.091Z,193.39
2023-10-12T16:54:43.962Z,190.96
2023-10-12T17:04:45.036Z,312.78
2023-10-12T17:14:44.143Z,551.35
2023-10-12T17:24:44.178Z,534.56
2023-10-12T17:34:43.100Z,509.04
2023-10-12T17:44:43.649Z,120.39
2023-10-12T17:54:42.138Z,503.41
2023-10-12T18:04:41.173Z,9.28
2023-10-12T18:14:40.131Z,4.64
2023-10-12T18:24:40.068Z,174.17
2023-10-12T18:34:39.144Z,16.51
2023-10-12T18:44:38.176Z,321.34
2023-10-12T18:54:37.184Z,10.55
2023-10-12T19:04:36.170Z,87.75
2023-10-12T19:14:36.181Z,50.03
2023-10-12T19:24:35.161Z,172.41
2023-10-12T19:34:34.543Z,37.99
2023-10-12T19:44:33.205Z,31.42
2023-10-12T19:54:32.171Z,15.30
2023-10-12T20:04:31.288Z,19.33
2023-10-12T20:14:31.220Z,54.23
2023-10-12T20:24:32.238Z,6.96
2023-10-12T20:34:31.261Z,25.84
2023-10-12T20:44:32.146Z,24.80
2023-10-12T20:54:32.670Z,9.28
2023-10-12T21:04:32.270Z,9.94
2023-10-12T21:14:35.627Z,6.79
2023-10-12T21:24:38.045Z,8.06
2023-10-12T21:34:38.175Z,8.28
2023-10-12T21:44:37.812Z,11.71
2023-10-12T21:54:36.448Z,22.20
2023-10-12T22:04:35.450Z,12.98
2023-10-12T22:14:50.224Z,11.93
2023-10-12T22:24:49.379Z,11.04
2023-10-12T22:34:49.583Z,8.73
2023-10-12T22:44:48.312Z,13.09
2023-10-12T22:54:47.301Z,24.63
2023-10-12T23:04:46.408Z,24.63
2023-10-12T23:14:45.866Z,453.66
2023-10-12T23:24:45.329Z,9.50
2023-10-12T23:34:45.415Z,21.81
2023-10-12T23:44:56.170Z,9.61
2023-10-12T23:54:55.364Z,12.15
